Time;durP1;ratioP1;P1;durP2;ratioP2;P2;SDS_P1;SDS_P2;PMS_P1;PMS_P2;Temp;Humidity;BMP_temperature;BMP_pressure;BME280_temperature;BME280_humidity;BME280_pressure;Samples;Min_cycle;Max_cycle;Signal;HPM_P1;HPM_P2
2022/10/10 00:00:41;;;;;;;11.18;6.22;;;;;;;4.06;83.26;100584.64;1768419;80;20902;-59
2022/10/10 00:03:09;;;;;;;11.88;6.00;;;;;;;4.06;83.45;100583.80;1761761;80;20906;-59
2022/10/10 00:05:38;;;;;;;12.85;6.42;;;;;;;4.02;83.22;100585.55;1765335;80;21046;-60
2022/10/10 00:08:06;;;;;;;11.43;5.80;;;;;;;3.95;83.24;100578.28;1777151;79;20922;-60
2022/10/10 00:10:34;;;;;;;11.95;6.10;;;;;;;3.94;83.32;100579.57;1767391;80;21421;-59
2022/10/10 00:13:01;;;;;;;11.53;6.20;;;;;;;3.92;83.41;100571.84;1769355;80;21444;-60
2022/10/10 00:15:28;;;;;;;10.75;6.03;;;;;;;3.95;83.67;100569.65;1770991;79;20945;-59
2022/10/10 00:17:55;;;;;;;12.03;6.17;;;;;;;3.97;83.68;100564.05;1768545;80;21053;-60
2022/10/10 00:20:21;;;;;;;13.47;6.60;;;;;;;3.98;83.78;100565.78;1765429;80;20965;-60
2022/10/10 00:22:48;;;;;;;12.07;5.60;;;;;;;3.98;83.77;100558.87;1766374;79;21606;-60
2022/10/10 00:25:15;;;;;;;13.28;5.92;;;;;;;3.96;83.58;100563.19;1762856;80;20930;-59
2022/10/10 00:27:41;;;;;;;12.70;5.75;;;;;;;3.95;83.67;100563.19;1766170;80;20905;-59
2022/10/10 00:30:09;;;;;;;10.88;5.42;;;;;;;3.92;83.54;100559.34;1770134;80;21069;-60
2022/10/10 00:32:36;;;;;;;8.53;5.00;;;;;;;3.86;83.54;100554.22;1768774;80;20906;-60
2022/10/10 00:35:04;;;;;;;9.65;5.25;;;;;;;3.83;83.67;100556.82;1765481;80;21462;-60
2022/10/10 00:37:31;;;;;;;12.18;5.78;;;;;;;3.79;83.65;100560.72;1770708;80;20859;-60
2022/10/10 00:39:58;;;;;;;9.10;5.17;;;;;;;3.76;83.73;100563.33;1772404;80;20887;-60
2022/10/10 00:42:24;;;;;;;7.25;4.72;;;;;;;3.75;83.73;100559.03;1766489;80;21128;-60
2022/10/10 00:45:31;;;;;;;9.63;5.33;;;;;;;3.77;84.05;100561.59;1766896;80;20978;-60
2022/10/10 00:48:09;;;;;;;10.48;4.97;;;;;;;3.83;84.24;100550.36;1764567;80;20969;-59
2022/10/10 00:50:41;;;;;;;5.72;3.80;;;;;;;3.88;84.48;100553.34;1785092;80;21003;-59
2022/10/10 00:53:11;;;;;;;8.38;4.05;;;;;;;3.95;84.63;100554.14;1778886;79;20926;-59
2022/10/10 00:55:38;;;;;;;10.68;4.97;;;;;;;3.99;84.53;100559.73;1781563;79;21079;-60
2022/10/10 00:58:07;;;;;;;10.72;4.55;;;;;;;4.00;84.45;100558.85;1775663;78;20958;-59
2022/10/10 01:00:34;;;;;;;7.25;4.40;;;;;;;4.00;84.51;100558.85;1753698;81;20951;-60
2022/10/10 01:03:00;;;;;;;7.78;4.35;;;;;;;4.03;84.64;100564.00;1817355;78;20957;-60
2022/10/10 01:05:27;;;;;;;8.43;4.73;;;;;;;4.02;84.52;100556.69;1812087;78;20893;-60
2022/10/10 01:07:55;;;;;;;8.13;4.58;;;;;;;4.02;84.58;100564.88;1809960;78;21119;-60
2022/10/10 01:10:23;;;;;;;9.98;4.60;;;;;;;4.05;84.70;100564.85;1815397;78;21492;-60
2022/10/10 01:13:10;;;;;;;7.30;3.95;;;;;;;4.05;84.58;100564.85;1821312;78;20917;-59
2022/10/10 01:15:48;;;;;;;9.88;4.80;;;;;;;4.03;84.61;100564.00;1809429;78;21495;-60
2022/10/10 01:18:45;;;;;;;10.40;5.05;;;;;;;4.00;84.52;100556.27;1815535;78;20891;-59
2022/10/10 01:21:20;;;;;;;6.70;4.60;;;;;;;3.97;84.57;100558.87;1812839;78;21049;-60
2022/10/10 01:24:22;;;;;;;12.65;5.12;;;;;;;3.93;84.50;100546.86;1811366;78;20921;-60
2022/10/10 01:27:27;;;;;;;8.10;5.22;;;;;;;3.86;84.37;100550.34;1817931;78;20942;-61
2022/10/10 01:29:59;;;;;;;6.67;4.42;;;;;;;3.77;84.27;100552.11;1710360;81;20882;-61
2022/10/10 01:32:55;;;;;;;7.33;3.80;;;;;;;3.76;84.72;100550.41;1694349;81;21082;-60
2022/10/10 01:35:36;;;;;;;9.70;4.33;;;;;;;3.77;84.89;100544.36;1722382;81;21832;-60
2022/10/10 01:38:30;;;;;;;11.20;4.97;;;;;;;3.79;84.85;100537.47;1711722;81;21172;-59
2022/10/10 01:41:07;;;;;;;10.88;5.00;;;;;;;3.77;84.86;100541.78;1682151;83;20926;-60
2022/10/10 01:43:35;;;;;;;13.78;5.03;;;;;;;3.77;85.07;100536.61;1717249;81;21498;-60
2022/10/10 01:46:16;;;;;;;12.88;4.90;;;;;;;3.77;84.99;100538.34;1699646;81;20971;-60
2022/10/10 01:48:46;;;;;;;8.80;4.40;;;;;;;3.77;85.22;100535.32;1690767;81;21479;-60
2022/10/10 01:51:30;;;;;;;13.53;4.35;;;;;;;3.80;85.29;100534.00;1718886;81;20984;-61
2022/10/10 01:54:31;;;;;;;8.20;5.10;;;;;;;3.75;84.92;100531.91;1709200;82;20941;-59
2022/10/10 01:57:19;;;;;;;6.72;4.60;;;;;;;3.66;84.86;100525.49;1705778;82;21070;-60
2022/10/10 02:00:02;;;;;;;11.35;4.60;;;;;;;3.55;84.89;100520.38;1692657;82;21400;-60
2022/10/10 02:03:06;;;;;;;7.60;5.40;;;;;;;3.54;85.00;100512.66;1706233;84;20999;-59
2022/10/10 02:05:55;;;;;;;8.35;4.85;;;;;;;3.49;85.02;100516.99;1706131;81;20964;-60
2022/10/10 02:08:34;;;;;;;11.40;4.97;;;;;;;3.42;85.11;100515.30;1778905;80;20945;-60
2022/10/10 02:11:08;;;;;;;9.80;4.85;;;;;;;3.40;85.20;100515.32;1765570;81;21412;-60
2022/10/10 02:13:50;;;;;;;7.12;4.80;;;;;;;3.40;85.29;100519.63;1766387;81;21496;-60
2022/10/10 02:16:27;;;;;;;13.78;5.47;;;;;;;3.35;85.12;100517.91;1815413;78;21093;-60
2022/10/10 02:18:56;;;;;;;11.08;4.72;;;;;;;3.31;85.11;100514.94;1810585;77;20915;-59
2022/10/10 02:21:24;;;;;;;13.03;4.83;;;;;;;3.27;85.15;100514.51;1808202;78;20927;-60
2022/10/10 02:23:54;;;;;;;7.17;4.50;;;;;;;3.24;85.16;100513.23;1819933;78;20886;-60
2022/10/10 02:26:22;;;;;;;8.40;4.53;;;;;;;3.21;85.19;100514.55;1814077;78;20951;-60
2022/10/10 02:29:12;;;;;;;7.72;4.30;;;;;;;3.21;85.27;100518.86;1819857;78;21481;-60
2022/10/10 02:31:46;;;;;;;8.10;4.12;;;;;;;3.21;85.39;100508.53;1818620;77;21565;-60
2022/10/10 02:34:24;;;;;;;8.63;4.35;;;;;;;3.26;85.81;100509.38;1812192;78;20878;-60
2022/10/10 02:36:56;;;;;;;7.67;4.08;;;;;;;3.38;86.17;100511.03;1820122;78;20934;-59
2022/10/10 02:39:27;;;;;;;11.03;4.25;;;;;;;3.44;86.20;100500.66;1819154;78;20879;-60
2022/10/10 02:41:54;;;;;;;8.28;4.30;;;;;;;3.50;86.21;100509.25;1820833;78;21409;-60
2022/10/10 02:44:22;;;;;;;7.70;4.00;;;;;;;3.54;86.23;100502.34;1819087;77;20927;-60
2022/10/10 02:46:49;;;;;;;11.60;4.72;;;;;;;3.57;86.20;100504.45;1819620;77;20906;-60
2022/10/10 02:49:26;;;;;;;9.93;4.25;;;;;;;3.61;86.31;100497.54;1812529;77;21425;-59
2022/10/10 02:51:52;;;;;;;10.93;4.65;;;;;;;3.66;86.34;100500.95;1809478;77;22033;-59
2022/10/10 02:54:19;;;;;;;7.93;4.30;;;;;;;3.74;86.56;100503.05;1753861;80;21046;-60
2022/10/10 02:56:46;;;;;;;8.00;4.30;;;;;;;3.84;86.86;100503.87;1739162;80;20890;-59
2022/10/10 02:59:12;;;;;;;7.12;4.25;;;;;;;3.91;86.85;100500.35;1752373;81;20951;-59
2022/10/10 03:01:39;;;;;;;11.90;4.40;;;;;;;3.93;86.59;100503.79;1784748;80;21562;-60
2022/10/10 03:04:06;;;;;;;9.18;4.55;;;;;;;3.93;86.49;100496.03;1772027;80;20876;-60
2022/10/10 03:06:33;;;;;;;9.63;4.47;;;;;;;3.93;86.47;100497.77;1785078;80;21022;-60
2022/10/10 03:08:59;;;;;;;12.68;4.42;;;;;;;3.95;86.53;100501.17;1772333;80;20916;-60
2022/10/10 03:11:26;;;;;;;7.62;4.55;;;;;;;3.96;86.64;100502.91;1773535;80;20887;-60
2022/10/10 03:13:53;;;;;;;9.13;5.05;;;;;;;3.97;86.57;100502.03;1782866;80;21468;-60
2022/10/10 03:16:19;;;;;;;10.20;4.42;;;;;;;3.95;86.62;100501.17;1785236;80;20871;-60
2022/10/10 03:18:46;;;;;;;9.10;4.07;;;;;;;3.94;86.64;100502.05;1788422;80;21094;-60
2022/10/10 03:21:13;;;;;;;9.35;4.67;;;;;;;3.94;86.59;100494.30;1777931;80;20899;-60
2022/10/10 03:23:39;;;;;;;6.62;3.77;;;;;;;3.91;86.58;100497.77;1752778;81;21425;-60
2022/10/10 03:26:07;;;;;;;8.63;4.22;;;;;;;3.90;86.67;100496.06;1786517;80;21476;-59
2022/10/10 03:28:35;;;;;;;9.78;4.62;;;;;;;3.88;86.62;100493.06;1821418;78;20872;-60
2022/10/10 03:31:02;;;;;;;9.98;4.53;;;;;;;3.88;86.69;100494.36;1819126;78;21048;-59
2022/10/10 03:33:29;;;;;;;9.35;4.72;;;;;;;3.85;86.56;100494.38;1811545;78;21438;-60
2022/10/10 03:35:56;;;;;;;7.20;4.50;;;;;;;3.83;86.64;100490.95;1817719;78;20945;-60
2022/10/10 03:38:23;;;;;;;6.57;4.43;;;;;;;3.80;86.70;100493.97;1813975;78;20896;-60
2022/10/10 03:40:50;;;;;;;8.27;4.70;;;;;;;3.71;86.69;100472.09;1814713;78;22016;-60
2022/10/10 03:43:17;;;;;;;9.25;5.03;;;;;;;3.75;86.75;100491.88;1816746;78;21051;-60
2022/10/10 03:45:44;;;;;;;320.63;187.10;;;;;;;3.72;86.71;100484.13;1816608;78;20891;-60
2022/10/10 03:48:11;;;;;;;33.90;20.62;;;;;;;3.70;86.78;100487.17;1802886;78;20873;-60
2022/10/10 03:50:38;;;;;;;19.60;10.05;;;;;;;3.69;86.90;100482.85;1819409;78;20911;-60
2022/10/10 03:53:05;;;;;;;15.00;8.53;;;;;;;3.67;86.90;100488.48;1788145;78;20883;-60
2022/10/10 03:55:32;;;;;;;11.28;6.80;;;;;;;3.64;86.87;100478.18;1770898;79;21388;-60
2022/10/10 03:57:59;;;;;;;11.80;7.13;;;;;;;3.61;86.81;100484.63;1771480;80;20927;-59
2022/10/10 04:00:25;;;;;;;14.57;7.67;;;;;;;3.60;86.98;100482.92;1769583;80;21158;-59
2022/10/10 04:02:52;;;;;;;14.38;7.25;;;;;;;3.59;87.02;100478.64;1770851;80;20876;-60
2022/10/10 04:05:19;;;;;;;12.27;6.30;;;;;;;3.61;87.14;100474.73;1774717;80;20959;-60
2022/10/10 04:07:46;;;;;;;12.80;7.23;;;;;;;3.59;86.95;100474.77;1751295;81;22143;-60
2022/10/10 04:10:12;;;;;;;10.68;7.25;;;;;;;3.59;86.95;100474.77;1770732;80;22043;-60
2022/10/10 04:12:39;;;;;;;13.67;8.07;;;;;;;3.57;87.19;100479.08;1775170;80;20997;-60
2022/10/10 04:15:06;;;;;;;12.25;7.50;;;;;;;3.56;87.18;100477.37;1775634;80;21496;-60
2022/10/10 04:17:33;;;;;;;;;;;;;;;3.56;87.25;100479.95;1771369;79;20926;-60
2022/10/10 04:20:00;;;;;;;14.87;7.95;;;;;;;3.55;87.26;100482.09;1769463;79;21082;-59
2022/10/10 04:22:27;;;;;;;14.23;7.83;;;;;;;3.52;87.17;100478.24;1769743;80;20890;-59
2022/10/10 04:24:53;;;;;;;14.80;8.85;;;;;;;3.52;87.28;100473.08;1778854;79;20937;-60
2022/10/10 04:27:20;;;;;;;16.32;8.70;;;;;;;3.54;87.30;100476.52;1775233;79;20887;-59
2022/10/10 04:29:46;;;;;;;27.22;18.73;;;;;;;3.56;87.45;100472.20;1770971;80;20935;-60
2022/10/10 04:32:13;;;;;;;27.98;19.57;;;;;;;3.56;87.38;100463.17;1775854;79;21044;-59
2022/10/10 04:34:40;;;;;;;27.70;21.02;;;;;;;3.54;87.27;100461.88;1774413;80;20859;-60
2022/10/10 04:37:06;;;;;;;27.85;19.65;;;;;;;3.51;87.33;100466.21;1744911;81;20907;-59
2022/10/10 04:39:33;;;;;;;23.37;19.00;;;;;;;3.48;87.27;100454.17;1741534;81;21908;-59
2022/10/10 04:42:00;;;;;;;30.02;19.62;;;;;;;3.48;87.29;100462.36;1776078;80;20907;-60
2022/10/10 04:44:27;;;;;;;20.57;13.85;;;;;;;3.45;87.42;100458.52;1748514;81;21087;-60
2022/10/10 04:46:54;;;;;;;22.98;13.68;;;;;;;3.46;87.77;100457.63;1746431;80;20909;-60
2022/10/10 04:49:20;;;;;;;15.63;12.13;;;;;;;3.44;87.44;100459.36;1740083;80;20889;-60
2022/10/10 04:51:47;;;;;;;20.10;12.97;;;;;;;3.41;87.47;100451.63;1763285;80;21430;-60
2022/10/10 04:54:14;;;;;;;20.17;10.88;;;;;;;3.39;87.41;100450.78;1771256;79;21488;-61
2022/10/10 04:56:41;;;;;;;13.83;9.38;;;;;;;3.39;87.60;100444.33;1774412;80;21123;-59
2022/10/10 04:59:09;;;;;;;13.93;9.05;;;;;;;3.39;87.66;100448.20;1772356;79;20896;-59
2022/10/10 05:01:36;;;;;;;14.70;9.80;;;;;;;3.41;87.85;100441.31;1768611;80;20956;-60
2022/10/10 05:04:03;;;;;;;14.90;9.53;;;;;;;3.46;88.02;100439.56;1746187;81;21464;-60
2022/10/10 05:06:30;;;;;;;14.43;8.83;;;;;;;3.50;88.07;100428.33;1747493;81;20911;-59
2022/10/10 05:08:57;;;;;;;16.30;8.68;;;;;;;3.52;88.15;100434.34;1778847;80;21505;-59
2022/10/10 05:11:24;;;;;;;13.50;8.60;;;;;;;3.58;88.20;100442.92;1770506;80;20914;-59
2022/10/10 05:13:51;;;;;;;18.53;10.07;;;;;;;3.63;88.27;100436.41;1772916;80;20922;-59
2022/10/10 05:16:17;;;;;;;13.70;7.90;;;;;;;3.70;88.36;100431.64;1772580;80;20907;-59
2022/10/10 05:18:44;;;;;;;14.13;8.83;;;;;;;3.76;88.40;100435.45;1775635;80;20966;-59
2022/10/10 05:21:11;;;;;;;16.75;8.75;;;;;;;3.81;88.36;100435.00;1776640;80;21105;-60
2022/10/10 05:23:40;;;;;;;13.70;7.67;;;;;;;3.93;88.66;100438.34;1771635;80;20909;-59
2022/10/10 05:26:07;;;;;;;11.55;8.05;;;;;;;4.20;88.80;100425.17;1773692;79;22165;-59
2022/10/10 05:28:36;;;;;;;16.25;7.97;;;;;;;4.52;88.83;100429.13;1773075;80;28056;-60
2022/10/10 05:31:03;;;;;;;11.15;7.50;;;;;;;4.85;88.74;100421.86;1742751;80;20903;-60
2022/10/10 05:33:30;;;;;;;13.85;7.90;;;;;;;5.23;88.54;100421.77;1774703;80;21044;-60
2022/10/10 05:36:07;;;;;;;12.18;7.10;;;;;;;5.61;88.31;100422.05;1716276;81;20887;-60
2022/10/10 05:38:34;;;;;;;10.00;5.87;;;;;;;5.98;88.14;100420.17;1772700;80;20949;-59
2022/10/10 05:41:01;;;;;;;13.28;6.12;;;;;;;6.40;87.92;100413.80;1774725;80;20958;-59
2022/10/10 05:43:27;;;;;;;11.33;5.70;;;;;;;6.75;87.70;100413.56;1773861;80;20903;-59
2022/10/10 05:45:54;;;;;;;9.73;5.03;;;;;;;7.14;87.69;100410.98;1774431;80;21728;-60
2022/10/10 05:48:21;;;;;;;8.63;4.70;;;;;;;7.46;87.49;100405.52;1768846;80;20919;-60
2022/10/10 05:50:54;;;;;;;11.73;5.80;;;;;;;7.79;87.16;100404.70;1774248;80;21093;-60
2022/10/10 05:53:27;;;;;;;8.63;5.05;;;;;;;8.02;86.83;100398.05;1775551;80;20970;-60
2022/10/10 05:55:54;;;;;;;7.40;4.50;;;;;;;8.22;86.52;100403.58;1781260;79;20934;-60
2022/10/10 05:58:21;;;;;;;8.23;4.67;;;;;;;8.42;86.49;100400.92;1781237;79;21435;-60
2022/10/10 06:00:48;;;;;;;8.10;4.87;;;;;;;8.57;86.22;100388.80;1781868;79;21310;-60
2022/10/10 06:03:16;;;;;;;8.00;5.05;;;;;;;8.80;86.04;100388.58;1780388;79;32750;-60
2022/10/10 06:05:47;;;;;;;6.17;4.53;;;;;;;8.97;85.85;100388.92;1779990;80;20962;-60
2022/10/10 06:08:14;;;;;;;10.05;6.00;;;;;;;9.18;85.79;100390.86;1776438;79;21494;-61
2022/10/10 06:10:44;;;;;;;14.43;8.95;;;;;;;9.41;85.62;100386.70;1782769;80;21926;-60
2022/10/10 06:13:13;;;;;;;11.63;8.83;;;;;;;9.54;85.35;100389.30;1782526;79;20909;-60
2022/10/10 06:15:40;;;;;;;10.18;8.33;;;;;;;9.64;85.50;100386.80;1782990;79;20922;-60
2022/10/10 06:18:07;;;;;;;9.33;7.72;;;;;;;9.77;85.49;100386.39;1782455;79;21015;-61
2022/10/10 06:20:37;;;;;;;9.80;6.50;;;;;;;9.95;85.78;100393.61;1783880;80;20966;-60
2022/10/10 06:23:05;;;;;;;7.10;6.08;;;;;;;10.14;85.49;100385.13;1779289;80;20949;-60
2022/10/10 06:25:34;;;;;;;9.28;5.42;;;;;;;10.27;85.20;100385.14;1782854;80;21001;-61
2022/10/10 06:28:00;;;;;;;14.23;5.08;;;;;;;10.37;85.31;100380.00;1781831;80;21025;-61
2022/10/10 06:30:27;;;;;;;10.13;4.97;;;;;;;10.55;85.44;100377.62;1707799;82;20997;-61
2022/10/10 06:32:54;;;;;;;6.00;4.42;;;;;;;10.62;85.01;100375.20;1735333;82;20970;-63
2022/10/10 06:35:21;;;;;;;7.50;4.77;;;;;;;10.58;84.80;100374.90;1733108;82;21953;-62
2022/10/10 06:37:47;;;;;;;5.13;4.37;;;;;;;10.60;85.04;100375.70;1737037;81;20928;-62
2022/10/10 06:40:14;;;;;;;9.20;4.10;;;;;;;10.71;84.98;100368.31;1735007;81;20955;-63
2022/10/10 06:42:41;;;;;;;8.28;4.70;;;;;;;10.71;84.88;100370.47;1737890;81;20941;-62
2022/10/10 06:45:08;;;;;;;5.70;4.03;;;;;;;10.71;84.71;100369.63;1740837;81;21013;-62
2022/10/10 06:47:35;;;;;;;6.47;4.42;;;;;;;10.72;84.73;100366.09;1703277;83;21059;-62
2022/10/10 06:50:02;;;;;;;6.45;4.33;;;;;;;10.73;84.88;100363.89;1735611;82;21479;-62
2022/10/10 06:52:29;;;;;;;6.28;4.35;;;;;;;10.77;84.69;100364.16;1733546;82;20950;-62
2022/10/10 06:54:55;;;;;;;8.18;4.53;;;;;;;10.77;84.36;100366.77;1750804;80;20910;-62
2022/10/10 06:57:22;;;;;;;7.67;4.25;;;;;;;10.75;84.71;100364.23;1760304;81;20939;-62
2022/10/10 06:59:49;;;;;;;5.45;4.40;;;;;;;10.73;84.80;100363.89;1772499;80;22103;-62
2022/10/10 07:02:16;;;;;;;6.50;3.98;;;;;;;10.62;85.03;100358.22;1774861;80;20940;-61
2022/10/10 07:04:42;;;;;;;6.22;4.00;;;;;;;10.60;84.79;100354.81;1772746;80;20877;-61
2022/10/10 07:07:09;;;;;;;7.12;4.60;;;;;;;10.49;84.62;100353.44;1771740;80;21473;-61
2022/10/10 07:09:40;;;;;;;10.98;4.70;;;;;;;10.36;84.66;100350.86;1772883;80;20892;-61
2022/10/10 07:12:09;;;;;;;10.70;5.03;;;;;;;10.27;85.18;100353.36;1768303;79;21041;-60
2022/10/10 07:14:35;;;;;;;9.23;5.00;;;;;;;10.22;85.19;100354.39;1773581;79;20895;-61
2022/10/10 07:17:03;;;;;;;6.90;4.47;;;;;;;10.13;85.37;100359.95;1772995;80;20939;-60
2022/10/10 07:19:30;;;;;;;6.95;4.45;;;;;;;10.07;85.33;100355.34;1773726;80;20974;-60
2022/10/10 07:21:56;;;;;;;5.20;4.30;;;;;;;10.02;85.58;100353.34;1776456;78;21492;-60
2022/10/10 07:24:23;;;;;;;7.73;4.80;;;;;;;9.98;85.76;100349.61;1770967;80;21032;-60
2022/10/10 07:26:53;;;;;;;6.45;4.50;;;;;;;10.04;85.95;100348.08;1773962;79;21014;-60
2022/10/10 07:29:18;;;;;;;6.92;4.15;;;;;;;10.04;85.63;100348.93;1770597;80;20972;-60
2022/10/10 07:31:44;;;;;;;8.67;4.60;;;;;;;10.05;85.87;100340.22;1773032;79;20942;-60
2022/10/10 07:34:11;;;;;;;9.13;4.72;;;;;;;10.06;85.65;100341.91;1774946;80;20863;-60
2022/10/10 07:36:38;;;;;;;9.05;4.40;;;;;;;10.12;85.64;100343.91;1769417;79;20956;-60
2022/10/10 07:39:05;;;;;;;4.20;3.60;;;;;;;10.15;85.51;100341.19;1769020;80;20950;-60
2022/10/10 07:41:31;;;;;;;6.40;4.07;;;;;;;10.18;85.55;100344.99;1770470;80;20935;-60
2022/10/10 07:43:58;;;;;;;6.15;4.30;;;;;;;10.19;85.51;100338.85;1766449;80;21438;-60
2022/10/10 07:46:25;;;;;;;8.03;4.60;;;;;;;10.21;85.66;100335.28;1768844;80;21464;-60
2022/10/10 07:48:51;;;;;;;7.97;4.33;;;;;;;10.27;85.50;100334.24;1773027;80;21064;-60
2022/10/10 07:51:19;;;;;;;6.90;3.90;;;;;;;10.34;85.56;100331.83;1776456;78;21385;-60
2022/10/10 07:53:45;;;;;;;5.78;3.77;;;;;;;10.40;85.40;100332.89;1763211;79;21454;-60
2022/10/10 07:56:12;;;;;;;7.03;3.70;;;;;;;10.44;85.17;100326.64;1747755;81;21483;-60
2022/10/10 07:58:39;;;;;;;6.05;3.83;;;;;;;10.46;85.11;100319.61;1770775;80;20962;-60
2022/10/10 08:01:09;;;;;;;5.92;4.05;;;;;;;10.52;85.12;100318.53;1751239;81;21041;-60
2022/10/10 08:03:36;;;;;;;10.82;4.17;;;;;;;10.55;85.05;100312.34;1748356;81;20895;-60
2022/10/10 08:06:05;;;;;;;6.07;3.67;;;;;;;10.60;84.87;100318.25;1773507;79;20887;-60
2022/10/10 08:08:33;;;;;;;7.90;3.12;;;;;;;10.68;84.70;100311.83;1773630;80;21517;-60
2022/10/10 08:10:59;;;;;;;5.78;3.20;;;;;;;10.73;84.45;100306.44;1778172;79;20952;-60
2022/10/10 08:13:27;;;;;;;5.00;3.30;;;;;;;10.79;84.69;100311.41;1775586;80;21582;-60
2022/10/10 08:15:53;;;;;;;;;;;;;;;10.95;84.85;100292.92;1776058;80;21503;-59
2022/10/10 08:18:20;;;;;;;5.47;2.90;;;;;;;11.02;84.35;100301.82;1768195;80;20098;-60
2022/10/10 08:20:47;;;;;;;6.10;2.80;;;;;;;11.08;84.32;100286.73;1772435;80;21001;-60
2022/10/10 08:23:16;;;;;;;7.15;3.45;;;;;;;11.08;84.21;100293.27;1773823;80;21070;-60
2022/10/10 08:25:43;;;;;;;8.38;3.27;;;;;;;11.16;84.31;100283.82;1772910;80;21433;-60
2022/10/10 08:28:09;;;;;;;8.98;3.98;;;;;;;11.24;83.67;100276.52;1774647;80;21495;-60
2022/10/10 08:30:40;;;;;;;5.85;3.58;;;;;;;11.19;83.15;100275.85;1772601;79;20875;-60
2022/10/10 08:33:07;;;;;;;5.92;3.08;;;;;;;11.18;83.18;100271.55;1770464;80;20911;-60
2022/10/10 08:35:38;;;;;;;4.75;2.67;;;;;;;11.18;83.36;100272.86;1776209;79;20883;-60
2022/10/10 08:38:05;;;;;;;7.97;3.72;;;;;;;11.17;82.86;100264.60;1774082;80;21139;-60
2022/10/10 08:40:32;;;;;;;5.40;3.08;;;;;;;11.12;83.08;100257.43;1770036;79;20935;-60
2022/10/10 08:43:03;;;;;;;4.57;3.10;;;;;;;11.21;83.06;100255.73;1776188;79;20981;-60
2022/10/10 08:45:32;;;;;;;8.55;2.95;;;;;;;11.21;82.65;100249.20;1770434;80;20867;-59
2022/10/10 08:48:07;;;;;;;7.22;2.67;;;;;;;11.16;82.67;100257.69;1775252;79;20946;-59
2022/10/10 08:50:48;;;;;;;5.08;3.12;;;;;;;11.22;82.54;100252.20;1734474;80;21243;-60
2022/10/10 08:53:23;;;;;;;6.30;2.95;;;;;;;11.30;83.06;100244.89;1773850;80;20950;-60
2022/10/10 08:55:52;;;;;;;5.65;2.83;;;;;;;11.34;82.31;100245.17;1770905;79;21428;-60
2022/10/10 08:58:38;;;;;;;6.90;2.77;;;;;;;11.39;82.50;100241.88;1772989;80;21456;-60
2022/10/10 09:01:23;;;;;;;6.53;2.60;;;;;;;11.49;82.56;100240.20;1772311;80;20979;-60
2022/10/10 09:03:55;;;;;;;4.37;2.62;;;;;;;11.61;82.67;100235.73;1769779;80;21215;-59
2022/10/10 09:07:04;;;;;;;5.78;2.83;;;;;;;11.73;82.38;100229.96;1762922;80;20914;-60
2022/10/10 09:09:39;;;;;;;3.70;2.37;;;;;;;11.78;82.32;100226.69;1744463;81;20942;-60
2022/10/10 09:12:25;;;;;;;4.90;2.42;;;;;;;11.85;81.83;100220.31;1773344;78;20970;-59
2022/10/10 09:14:59;;;;;;;3.92;2.50;;;;;;;11.88;81.80;100222.41;1769656;78;20898;-60
2022/10/10 09:17:52;;;;;;;4.67;2.92;;;;;;;11.86;81.56;100216.77;1768726;78;21984;-61
2022/10/10 09:20:44;;;;;;;3.67;2.55;;;;;;;11.82;81.22;100215.66;1781157;80;20977;-60
2022/10/10 09:23:31;;;;;;;5.30;3.30;;;;;;;11.89;81.46;100209.70;1776753;79;20984;-60
2022/10/10 09:26:13;;;;;;;5.73;2.50;;;;;;;11.92;81.45;100209.56;1776805;80;20906;-60
2022/10/10 09:28:48;;;;;;;5.08;2.37;;;;;;;11.96;80.50;100203.27;1776347;80;20969;-60
2022/10/10 09:31:26;;;;;;;3.12;2.52;;;;;;;11.91;80.63;100201.34;1773442;80;21788;-60
2022/10/10 09:34:01;;;;;;;4.62;2.30;;;;;;;11.88;80.20;100196.25;1773404;80;20982;-60
2022/10/10 09:36:33;;;;;;;6.65;2.75;;;;;;;11.81;79.91;100196.47;1776384;80;20977;-60
2022/10/10 09:39:07;;;;;;;5.45;2.30;;;;;;;11.85;80.40;100191.53;1747775;80;21023;-60
2022/10/10 09:41:48;;;;;;;3.80;2.37;;;;;;;11.96;80.18;100186.25;1802028;78;20918;-60
2022/10/10 09:44:19;;;;;;;3.47;2.20;;;;;;;12.02;80.45;100186.00;1816251;78;21835;-60
2022/10/10 09:46:46;;;;;;;5.72;2.50;;;;;;;12.12;80.12;100183.33;1802411;78;20979;-60
2022/10/10 09:49:16;;;;;;;6.17;2.50;;;;;;;12.15;80.07;100176.64;1808642;78;20875;-60
2022/10/10 09:51:44;;;;;;;6.60;2.33;;;;;;;12.15;79.55;100168.78;1808527;77;20928;-60
2022/10/10 09:54:14;;;;;;;4.37;2.25;;;;;;;12.13;79.37;100161.48;1800839;78;21509;-60
2022/10/10 09:56:52;;;;;;;2.65;1.82;;;;;;;12.15;79.41;100154.39;1816542;78;21002;-61
2022/10/10 09:59:45;;;;;;;4.80;2.15;;;;;;;12.13;78.55;100144.47;1819374;78;21523;-61
2022/10/10 10:02:23;;;;;;;4.05;1.85;;;;;;;12.10;78.58;100152.47;1817673;78;21409;-61
2022/10/10 10:04:51;;;;;;;4.03;2.10;;;;;;;12.11;78.44;100150.23;1816762;78;20925;-61
2022/10/10 10:07:28;;;;;;;6.58;2.95;;;;;;;12.14;78.20;100146.16;1810511;78;20897;-60
2022/10/10 10:09:59;;;;;;;4.45;2.10;;;;;;;12.14;78.11;100147.47;1815585;78;21011;-60
2022/10/10 10:12:43;;;;;;;2.17;1.70;;;;;;;12.24;78.20;100136.95;1812026;78;20867;-61
2022/10/10 10:15:30;;;;;;;3.92;1.95;;;;;;;12.31;77.85;100133.11;1814760;78;20973;-61
2022/10/10 10:18:14;;;;;;;3.58;2.05;;;;;;;12.33;77.71;100133.52;1813193;78;20957;-60
2022/10/10 10:20:44;;;;;;;3.77;2.00;;;;;;;12.41;77.79;100124.37;1813382;78;20961;-61
2022/10/10 10:23:42;;;;;;;5.10;2.25;;;;;;;12.53;77.67;100120.30;1811487;78;21028;-60
2022/10/10 10:26:28;;;;;;;2.37;1.98;;;;;;;12.57;77.36;100117.90;1773215;79;20957;-61
2022/10/10 10:29:01;;;;;;;2.43;1.57;;;;;;;12.62;76.73;100111.98;1773790;79;20861;-60
2022/10/10 10:31:52;;;;;;;4.45;2.00;;;;;;;12.63;76.23;100111.51;1764822;80;21451;-60
2022/10/10 10:35:01;;;;;;;2.98;1.70;;;;;;;12.65;76.51;100100.03;1763325;80;20930;-61
2022/10/10 10:37:54;;;;;;;4.37;2.27;;;;;;;12.69;76.29;100098.13;1765645;80;21888;-59
2022/10/10 10:40:32;;;;;;;2.70;1.92;;;;;;;12.72;75.74;100096.20;1765239;80;20930;-61
2022/10/10 10:43:18;;;;;;;3.40;2.02;;;;;;;12.75;76.12;100096.04;1747745;80;21149;-61
2022/10/10 10:46:08;;;;;;;2.33;1.80;;;;;;;12.81;75.89;100088.80;1772805;80;21494;-60
2022/10/10 10:48:49;;;;;;;4.03;2.02;;;;;;;12.88;75.51;100073.13;1774698;79;20930;-61
2022/10/10 10:51:42;;;;;;;4.12;2.42;;;;;;;12.97;75.36;100068.28;1758402;81;21128;-61
2022/10/10 10:54:44;;;;;;;4.78;1.87;;;;;;;12.99;74.91;100069.50;1758764;80;21457;-61
2022/10/10 10:57:34;;;;;;;3.52;2.22;;;;;;;12.94;73.64;100062.36;1744483;80;20915;-60
2022/10/10 11:00:18;;;;;;;3.70;1.85;;;;;;;12.89;74.33;100058.66;1733188;81;21676;-60
2022/10/10 11:02:58;;;;;;;4.95;2.15;;;;;;;12.92;74.05;100058.49;1704143;83;21039;-60
2022/10/10 11:05:35;;;;;;;3.25;1.80;;;;;;;13.02;74.40;100049.67;1727410;82;21897;-61
2022/10/10 11:08:22;;;;;;;4.03;2.20;;;;;;;13.16;74.68;100047.20;1709504;83;21485;-60
2022/10/10 11:11:08;;;;;;;4.00;2.60;;;;;;;13.28;74.41;100040.96;1741516;81;20915;-61
2022/10/10 11:14:07;;;;;;;3.67;2.35;;;;;;;13.32;74.09;100034.61;1738393;82;20946;-61
2022/10/10 11:16:50;;;;;;;3.50;2.10;;;;;;;13.38;73.50;100034.27;1740971;82;20938;-61
2022/10/10 11:19:40;;;;;;;2.42;1.87;;;;;;;13.39;73.39;100025.50;1739013;81;21769;-60
2022/10/10 11:22:12;;;;;;;4.78;2.60;;;;;;;13.42;72.54;100014.36;1740208;82;20946;-60
2022/10/10 11:24:59;;;;;;;3.37;2.00;;;;;;;13.39;72.75;100015.00;1740918;81;20946;-60
2022/10/10 11:27:35;;;;;;;;;;;;;;;13.41;72.94;100013.13;1721424;81;21590;-60
2022/10/10 11:30:19;;;;;;;3.55;2.25;;;;;;;13.49;72.02;100007.47;1734255;81;20111;-61
2022/10/10 11:32:51;;;;;;;7.12;3.67;;;;;;;13.47;72.56;99989.20;1739591;81;21078;-60
2022/10/10 11:35:46;;;;;;;3.27;2.52;;;;;;;13.48;72.34;99988.27;1735231;81;20882;-60
2022/10/10 11:38:30;;;;;;;3.62;1.95;;;;;;;13.54;72.13;99988.39;1737275;81;20947;-61
2022/10/10 11:41:24;;;;;;;3.50;2.65;;;;;;;13.60;72.21;99974.45;1712911;81;20950;-61
2022/10/10 11:44:19;;;;;;;4.05;2.10;;;;;;;13.66;71.88;99980.66;1742332;81;21523;-60
2022/10/10 11:46:57;;;;;;;4.80;2.52;;;;;;;13.61;71.09;99973.55;1735801;81;21916;-60
2022/10/10 11:49:54;;;;;;;4.42;2.30;;;;;;;13.63;71.60;99976.91;1732270;81;21034;-61
2022/10/10 11:52:38;;;;;;;4.15;2.30;;;;;;;13.71;71.87;99967.77;1734510;81;21010;-61